Time;durP1;ratioP1;P1;durP2;ratioP2;P2;SDS_P1;SDS_P2;PMS_P1;PMS_P2;Temp;Humidity;BMP_temperature;BMP_pressure;BME280_temperature;BME280_humidity;BME280_pressure;Samples;Min_cycle;Max_cycle;Signal;HPM_P1;HPM_P2
2022/03/25 00:01:57;;;;;;;163.50;97.97;;;;;;;;;;4972492;28;20163;-61
2022/03/25 00:04:23;;;;;;;147.18;93.03;;;;;;;;;;4972798;28;20166;-63
2022/03/25 00:06:49;;;;;;;149.67;89.47;;;;;;;;;;4972778;28;20606;-61
2022/03/25 00:09:15;;;;;;;149.45;91.82;;;;;;;;;;4972460;28;20445;-61
2022/03/25 00:11:42;;;;;;;151.02;92.60;;;;;;;;;;4972523;28;20171;-60
2022/03/25 00:14:09;;;;;;;152.68;92.63;;;;;;;;;;4972586;28;20716;-61
2022/03/25 00:16:35;;;;;;;143.93;89.88;;;;;;;;;;4972708;28;20219;-59
2022/03/25 00:19:03;;;;;;;143.70;88.77;;;;;;;;;;4972517;28;20194;-60
2022/03/25 00:21:29;;;;;;;144.05;86.28;;;;;;;;;;4972397;28;20403;-59
2022/03/25 00:23:55;;;;;;;108.73;80.73;;;;;;;;;;4972606;28;20249;-61
2022/03/25 00:26:21;;;;;;;141.60;85.57;;;;;;;;;;4972494;28;20481;-62
2022/03/25 00:28:47;;;;;;;149.38;83.93;;;;;;;;;;4972368;28;20545;-61
2022/03/25 00:31:13;;;;;;;143.23;83.53;;;;;;;;;;4972280;28;20254;-61
2022/03/25 00:33:43;;;;;;;150.90;85.03;;;;;;;;;;4972644;28;20434;-60
2022/03/25 00:36:10;;;;;;;138.27;82.65;;;;;;;;;;4972504;28;20813;-60
2022/03/25 00:38:36;;;;;;;137.70;79.82;;;;;;;;;;4972427;28;20187;-60
2022/03/25 00:41:06;;;;;;;132.48;81.00;;;;;;;;;;4972199;28;20214;-61
2022/03/25 00:43:34;;;;;;;127.30;78.78;;;;;;;;;;4972419;28;20203;-59
2022/03/25 00:46:00;;;;;;;143.18;81.90;;;;;;;;;;4972535;28;20218;-60
2022/03/25 00:48:27;;;;;;;145.50;83.80;;;;;;;;;;4972197;28;20202;-59
2022/03/25 00:50:53;;;;;;;149.45;84.55;;;;;;;;;;4972114;28;20501;-61
2022/03/25 00:53:19;;;;;;;140.27;80.80;;;;;;;;;;4972289;28;20230;-61
2022/03/25 00:55:45;;;;;;;141.67;81.07;;;;;;;;;;4976383;28;20203;-59
2022/03/25 00:58:11;;;;;;;147.10;81.17;;;;;;;;;;4975407;28;20422;-60
2022/03/25 01:00:37;;;;;;;148.15;81.20;;;;;;;;;;4975782;28;20576;-59
2022/03/25 01:03:03;;;;;;;155.25;82.68;;;;;;;;;;4975892;28;20523;-60
2022/03/25 01:05:30;;;;;;;159.82;89.00;;;;;;;;;;4975499;28;20504;-60
2022/03/25 01:07:56;;;;;;;143.70;81.00;;;;;;;;;;4975408;28;20311;-60
2022/03/25 01:10:23;;;;;;;142.77;83.43;;;;;;;;;;4975483;28;20530;-58
2022/03/25 01:12:49;;;;;;;88.50;68.63;;;;;;;;;;4975790;28;20172;-59
2022/03/25 01:15:15;;;;;;;89.30;70.50;;;;;;;;;;4975662;28;20524;-60
2022/03/25 01:17:41;;;;;;;92.33;78.27;;;;;;;;;;4977746;28;20956;-60
2022/03/25 01:20:09;;;;;;;90.67;72.77;;;;;;;;;;4994369;28;20488;-57
2022/03/25 01:22:35;;;;;;;78.85;70.55;;;;;;;;;;4997944;28;20411;-60
2022/03/25 01:25:02;;;;;;;74.00;65.17;;;;;;;;;;4998384;28;20260;-60
2022/03/25 01:27:27;;;;;;;77.20;67.97;;;;;;;;;;4994816;28;20435;-57
2022/03/25 01:29:54;;;;;;;73.70;65.87;;;;;;;;;;4994965;28;20258;-59
2022/03/25 01:32:20;;;;;;;100.22;68.88;;;;;;;;;;4994707;28;20463;-59
2022/03/25 01:34:46;;;;;;;98.73;67.67;;;;;;;;;;4994861;28;20670;-59
2022/03/25 01:37:12;;;;;;;103.00;67.70;;;;;;;;;;4994610;28;20441;-60
2022/03/25 01:39:37;;;;;;;105.80;68.90;;;;;;;;;;4994553;28;20413;-56
2022/03/25 01:42:04;;;;;;;124.73;72.67;;;;;;;;;;4994461;28;20401;-60
2022/03/25 01:44:30;;;;;;;121.35;70.63;;;;;;;;;;4994605;28;20908;-59
2022/03/25 01:46:57;;;;;;;132.45;73.60;;;;;;;;;;4994552;28;20174;-60
2022/03/25 01:49:23;;;;;;;134.27;72.93;;;;;;;;;;4994569;28;20179;-59
2022/03/25 01:51:53;;;;;;;126.77;70.97;;;;;;;;;;4994262;28;20260;-61
2022/03/25 01:54:29;;;;;;;130.00;69.90;;;;;;;;;;4994382;28;20948;-60
2022/03/25 01:57:06;;;;;;;107.72;67.05;;;;;;;;;;4994369;28;20188;-59
2022/03/25 01:59:33;;;;;;;108.70;67.72;;;;;;;;;;4994342;28;20177;-61
2022/03/25 02:02:00;;;;;;;116.40;66.97;;;;;;;;;;4994076;28;20221;-59
2022/03/25 02:04:26;;;;;;;126.53;68.93;;;;;;;;;;4994274;28;20228;-59
2022/03/25 02:06:52;;;;;;;121.45;65.72;;;;;;;;;;4994083;28;20800;-59
2022/03/25 02:09:18;;;;;;;123.82;66.95;;;;;;;;;;4993088;28;20296;-59
2022/03/25 02:11:44;;;;;;;118.78;65.00;;;;;;;;;;4994067;28;20177;-59
2022/03/25 02:14:11;;;;;;;122.40;66.18;;;;;;;;;;4994034;28;20534;-60
2022/03/25 02:16:41;;;;;;;132.23;67.43;;;;;;;;;;4993940;28;20213;-58
2022/03/25 02:19:11;;;;;;;129.63;66.25;;;;;;;;;;4993856;28;20192;-58
2022/03/25 02:21:38;;;;;;;129.75;65.82;;;;;;;;;;4993677;28;20229;-59
2022/03/25 02:24:05;;;;;;;130.80;68.10;;;;;;;;;;4993961;28;20532;-59
2022/03/25 02:26:31;;;;;;;105.88;64.22;;;;;;;;;;4993933;28;20174;-58
2022/03/25 02:28:57;;;;;;;134.05;69.13;;;;;;;;;;4993790;28;20277;-59
2022/03/25 02:31:23;;;;;;;135.55;69.45;;;;;;;;;;4993559;28;20632;-60
2022/03/25 02:33:50;;;;;;;134.40;67.47;;;;;;;;;;4993604;28;20247;-61
2022/03/25 02:36:16;;;;;;;134.80;69.72;;;;;;;;;;4993442;28;20235;-60
2022/03/25 02:38:41;;;;;;;137.70;68.37;;;;;;;;;;4993193;28;20185;-61
2022/03/25 02:41:07;;;;;;;125.80;64.27;;;;;;;;;;4993326;28;20428;-61
2022/03/25 02:43:33;;;;;;;110.25;65.07;;;;;;;;;;4993532;28;20420;-58
2022/03/25 02:45:59;;;;;;;110.60;65.07;;;;;;;;;;4993385;28;20204;-59
2022/03/25 02:48:25;;;;;;;107.85;63.28;;;;;;;;;;4993406;28;20807;-61
2022/03/25 02:50:51;;;;;;;106.10;63.23;;;;;;;;;;4993116;28;20170;-58
2022/03/25 02:53:17;;;;;;;107.90;61.87;;;;;;;;;;4993361;28;20499;-61
2022/03/25 02:55:43;;;;;;;111.80;64.97;;;;;;;;;;4993298;28;20455;-61
2022/03/25 02:58:10;;;;;;;129.13;65.10;;;;;;;;;;4993163;28;20611;-59
2022/03/25 03:00:36;;;;;;;133.00;68.03;;;;;;;;;;4992897;28;20174;-61
2022/03/25 03:03:02;;;;;;;110.60;62.17;;;;;;;;;;4993161;28;20173;-60
2022/03/25 03:05:29;;;;;;;111.38;65.05;;;;;;;;;;4993119;28;20181;-60
2022/03/25 03:07:55;;;;;;;108.30;63.08;;;;;;;;;;4992884;28;20217;-59
2022/03/25 03:10:21;;;;;;;112.72;68.45;;;;;;;;;;4992704;28;20228;-61
2022/03/25 03:12:47;;;;;;;133.90;67.03;;;;;;;;;;4992903;28;20181;-59
2022/03/25 03:15:17;;;;;;;132.40;65.43;;;;;;;;;;4992747;28;20628;-60
2022/03/25 03:17:43;;;;;;;128.80;62.05;;;;;;;;;;4992835;28;20559;-59
2022/03/25 03:20:10;;;;;;;135.10;64.38;;;;;;;;;;4992371;28;20168;-58
2022/03/25 03:22:35;;;;;;;133.60;63.75;;;;;;;;;;4992812;28;20174;-59
2022/03/25 03:25:01;;;;;;;128.50;62.30;;;;;;;;;;4992786;28;20221;-59
2022/03/25 03:27:27;;;;;;;125.65;64.80;;;;;;;;;;4992626;28;20432;-61
2022/03/25 03:29:53;;;;;;;129.07;64.97;;;;;;;;;;4992576;28;20223;-59
2022/03/25 03:32:19;;;;;;;127.03;62.50;;;;;;;;;;4992250;28;20194;-60
2022/03/25 03:34:46;;;;;;;119.47;60.90;;;;;;;;;;4992474;28;20492;-58
2022/03/25 03:37:12;;;;;;;113.63;61.88;;;;;;;;;;4992248;28;20412;-60
2022/03/25 03:39:38;;;;;;;105.37;60.27;;;;;;;;;;4992512;28;20168;-60
2022/03/25 03:42:04;;;;;;;77.73;56.60;;;;;;;;;;4992211;28;20427;-56
2022/03/25 03:44:30;;;;;;;71.20;58.15;;;;;;;;;;4992445;28;20409;-60
2022/03/25 03:46:57;;;;;;;72.63;56.57;;;;;;;;;;4992480;28;20259;-59
2022/03/25 03:49:23;;;;;;;82.60;57.05;;;;;;;;;;4992263;28;20435;-57
2022/03/25 03:51:49;;;;;;;94.77;56.80;;;;;;;;;;4991927;28;20175;-59
2022/03/25 03:54:15;;;;;;;95.38;58.35;;;;;;;;;;4992317;28;20895;-60
2022/03/25 03:56:42;;;;;;;101.90;60.55;;;;;;;;;;4992397;28;20202;-59
2022/03/25 03:59:08;;;;;;;104.70;63.20;;;;;;;;;;4992125;28;20196;-61
2022/03/25 04:01:34;;;;;;;89.90;56.57;;;;;;;;;;4991811;28;20172;-57
2022/03/25 04:04:00;;;;;;;105.70;59.70;;;;;;;;;;4991826;28;20421;-60
2022/03/25 04:06:27;;;;;;;106.77;60.50;;;;;;;;;;4991711;28;20180;-61
2022/03/25 04:08:53;;;;;;;112.85;61.63;;;;;;;;;;4992965;28;20534;-60
2022/03/25 04:11:19;;;;;;;109.43;63.67;;;;;;;;;;4991961;28;20208;-59
2022/03/25 04:13:45;;;;;;;108.45;58.08;;;;;;;;;;4992224;28;20809;-60
2022/03/25 04:16:11;;;;;;;103.63;59.13;;;;;;;;;;4992006;28;20279;-60
2022/03/25 04:18:37;;;;;;;74.88;54.35;;;;;;;;;;4992005;28;20196;-60
2022/03/25 04:21:04;;;;;;;78.20;55.78;;;;;;;;;;4991610;28;20683;-61
2022/03/25 04:23:29;;;;;;;104.15;59.65;;;;;;;;;;4993268;28;20176;-60
2022/03/25 04:25:55;;;;;;;109.30;59.87;;;;;;;;;;4991867;28;20181;-61
2022/03/25 04:28:22;;;;;;;128.47;62.50;;;;;;;;;;4991893;28;20490;-61
2022/03/25 04:30:48;;;;;;;129.75;59.83;;;;;;;;;;4995890;28;20511;-61
2022/03/25 04:33:14;;;;;;;129.82;59.38;;;;;;;;;;4995115;28;20184;-61
2022/03/25 04:35:40;;;;;;;136.88;61.85;;;;;;;;;;4995735;28;20210;-60
2022/03/25 04:38:06;;;;;;;108.72;56.25;;;;;;;;;;4995798;28;20268;-61
2022/03/25 04:40:33;;;;;;;111.30;59.80;;;;;;;;;;4995524;28;20180;-61
2022/03/25 04:43:00;;;;;;;110.25;58.45;;;;;;;;;;5002377;28;20267;-61
2022/03/25 04:45:26;;;;;;;130.07;60.63;;;;;;;;;;5000435;28;20178;-61
2022/03/25 04:47:53;;;;;;;106.65;57.70;;;;;;;;;;4995472;28;20206;-59
2022/03/25 04:50:19;;;;;;;116.90;64.32;;;;;;;;;;4995312;28;20264;-60
2022/03/25 04:52:46;;;;;;;115.75;59.28;;;;;;;;;;4995608;28;20177;-59
2022/03/25 04:55:12;;;;;;;113.57;59.97;;;;;;;;;;4995481;28;20200;-58
2022/03/25 04:57:39;;;;;;;112.10;59.33;;;;;;;;;;4995431;28;20272;-61
2022/03/25 05:00:05;;;;;;;110.82;59.35;;;;;;;;;;4995279;28;20628;-60
2022/03/25 05:02:32;;;;;;;112.55;58.65;;;;;;;;;;4995383;28;20160;-60
2022/03/25 05:04:58;;;;;;;112.30;58.22;;;;;;;;;;4995485;28;20323;-60
2022/03/25 05:07:24;;;;;;;113.70;58.95;;;;;;;;;;4995299;28;20209;-58
2022/03/25 05:09:51;;;;;;;113.10;57.72;;;;;;;;;;4995296;28;20535;-61
2022/03/25 05:12:17;;;;;;;116.22;58.03;;;;;;;;;;4995159;28;20511;-61
2022/03/25 05:14:43;;;;;;;115.22;58.92;;;;;;;;;;4995193;28;20180;-60
2022/03/25 05:17:09;;;;;;;117.82;59.72;;;;;;;;;;4994941;28;20721;-61
2022/03/25 05:19:35;;;;;;;114.63;58.15;;;;;;;;;;4995120;28;20214;-61
2022/03/25 05:22:01;;;;;;;115.30;59.20;;;;;;;;;;4997332;28;20192;-58
2022/03/25 05:24:27;;;;;;;116.17;58.33;;;;;;;;;;5005421;28;20419;-60
2022/03/25 05:26:54;;;;;;;112.45;57.83;;;;;;;;;;4997640;28;20422;-61
2022/03/25 05:29:20;;;;;;;110.25;57.42;;;;;;;;;;4977789;28;20719;-59
2022/03/25 05:31:46;;;;;;;118.65;59.42;;;;;;;;;;4994588;28;20182;-61
2022/03/25 05:34:13;;;;;;;114.70;59.27;;;;;;;;;;4994852;28;20568;-59
2022/03/25 05:36:39;;;;;;;115.43;57.97;;;;;;;;;;4994795;28;20495;-61
2022/03/25 05:39:05;;;;;;;115.00;59.25;;;;;;;;;;4994688;28;20208;-59
2022/03/25 05:41:31;;;;;;;95.05;53.97;;;;;;;;;;4994518;28;20199;-62
2022/03/25 05:43:57;;;;;;;88.90;55.22;;;;;;;;;;4993464;28;20561;-61
2022/03/25 05:46:23;;;;;;;77.30;52.57;;;;;;;;;;4994567;28;20181;-61
2022/03/25 05:48:49;;;;;;;77.68;51.78;;;;;;;;;;4994543;28;20432;-59
2022/03/25 05:51:16;;;;;;;76.37;52.77;;;;;;;;;;4994299;28;20173;-61
2022/03/25 05:53:42;;;;;;;72.93;50.17;;;;;;;;;;4994563;28;20408;-56
2022/03/25 05:56:08;;;;;;;79.88;53.65;;;;;;;;;;4994440;28;20203;-61
2022/03/25 05:58:34;;;;;;;75.57;52.30;;;;;;;;;;4994405;28;20194;-61
2022/03/25 06:01:01;;;;;;;72.30;51.58;;;;;;;;;;5001077;28;20529;-61
2022/03/25 06:03:27;;;;;;;78.18;53.38;;;;;;;;;;4998358;28;20785;-61
2022/03/25 06:05:53;;;;;;;78.50;52.47;;;;;;;;;;4994314;28;20227;-60
2022/03/25 06:08:19;;;;;;;74.78;51.20;;;;;;;;;;4994305;28;20449;-60
2022/03/25 06:10:45;;;;;;;73.33;51.50;;;;;;;;;;4994169;28;20255;-60
2022/03/25 06:13:11;;;;;;;83.97;52.80;;;;;;;;;;4994349;28;20796;-59
2022/03/25 06:15:37;;;;;;;103.07;55.88;;;;;;;;;;4994072;28;20192;-61
2022/03/25 06:18:03;;;;;;;97.17;56.37;;;;;;;;;;4994370;28;20192;-58
2022/03/25 06:20:30;;;;;;;103.35;55.50;;;;;;;;;;4993827;28;20423;-59
2022/03/25 06:22:56;;;;;;;106.70;56.85;;;;;;;;;;4994233;28;20219;-60
2022/03/25 06:25:22;;;;;;;109.45;58.00;;;;;;;;;;4993979;28;20259;-60
2022/03/25 06:27:49;;;;;;;112.10;57.50;;;;;;;;;;4993914;28;20206;-57
2022/03/25 06:30:16;;;;;;;112.85;63.22;;;;;;;;;;4993590;28;20183;-60
2022/03/25 06:32:42;;;;;;;111.50;59.25;;;;;;;;;;4993856;28;20655;-58
2022/03/25 06:35:08;;;;;;;113.22;58.47;;;;;;;;;;4993856;28;20394;-60
2022/03/25 06:37:35;;;;;;;110.00;58.65;;;;;;;;;;4993973;28;20770;-60
2022/03/25 06:40:01;;;;;;;114.95;59.92;;;;;;;;;;4993874;28;20174;-60
2022/03/25 06:42:27;;;;;;;111.10;61.40;;;;;;;;;;4993363;28;20596;-60
2022/03/25 06:44:53;;;;;;;112.13;60.80;;;;;;;;;;4993586;28;20528;-61
2022/03/25 06:47:19;;;;;;;117.70;63.47;;;;;;;;;;4993491;28;20490;-60
2022/03/25 06:49:45;;;;;;;110.43;60.30;;;;;;;;;;4993600;28;20411;-61
2022/03/25 06:52:11;;;;;;;115.68;62.63;;;;;;;;;;4993288;28;20252;-61
2022/03/25 06:54:37;;;;;;;114.47;61.65;;;;;;;;;;4993139;28;20223;-59
2022/03/25 06:57:04;;;;;;;118.80;63.60;;;;;;;;;;4992942;28;20300;-61
2022/03/25 06:59:30;;;;;;;120.63;63.92;;;;;;;;;;4999306;28;20181;-61
2022/03/25 07:01:56;;;;;;;119.85;68.25;;;;;;;;;;4994729;28;20188;-60
2022/03/25 07:04:22;;;;;;;116.05;64.05;;;;;;;;;;4999153;28;20537;-60
2022/03/25 07:06:48;;;;;;;95.15;60.33;;;;;;;;;;4992999;28;20657;-61
2022/03/25 07:09:15;;;;;;;66.10;55.25;;;;;;;;;;4992950;28;20211;-60
2022/03/25 07:11:41;;;;;;;67.10;55.50;;;;;;;;;;4992732;28;20692;-59
2022/03/25 07:14:07;;;;;;;72.53;58.75;;;;;;;;;;4995118;28;20197;-61
2022/03/25 07:16:33;;;;;;;81.10;57.90;;;;;;;;;;5004374;28;20238;-60
2022/03/25 07:18:59;;;;;;;91.63;58.37;;;;;;;;;;4992825;28;20433;-60
2022/03/25 07:21:25;;;;;;;51.40;46.55;;;;;;;;;;4992743;28;20486;-60
2022/03/25 07:23:51;;;;;;;56.53;51.55;;;;;;;;;;4993020;28;20268;-59
2022/03/25 07:26:17;;;;;;;61.05;55.90;;;;;;;;;;4992835;28;20541;-61
2022/03/25 07:28:44;;;;;;;54.72;50.20;;;;;;;;;;4992704;28;20208;-60
2022/03/25 07:31:10;;;;;;;61.08;55.42;;;;;;;;;;4992624;28;20215;-61
2022/03/25 07:33:36;;;;;;;67.70;61.30;;;;;;;;;;4992661;28;20174;-61
2022/03/25 07:36:02;;;;;;;63.90;58.00;;;;;;;;;;4992590;28;20803;-61
2022/03/25 07:38:29;;;;;;;62.20;56.58;;;;;;;;;;4992665;28;20432;-61
2022/03/25 07:40:55;;;;;;;63.58;58.22;;;;;;;;;;4992320;28;20166;-59
2022/03/25 07:43:21;;;;;;;70.32;63.92;;;;;;;;;;4992484;28;20170;-61
2022/03/25 07:45:48;;;;;;;70.25;64.13;;;;;;;;;;4992544;28;20181;-62
2022/03/25 07:48:14;;;;;;;62.42;57.58;;;;;;;;;;4992336;28;20285;-60
2022/03/25 07:50:40;;;;;;;72.82;66.82;;;;;;;;;;4992281;28;20186;-59
2022/03/25 07:53:06;;;;;;;72.13;66.43;;;;;;;;;;4993178;28;20459;-61
2022/03/25 07:55:32;;;;;;;68.83;63.20;;;;;;;;;;4992787;28;20212;-60
2022/03/25 07:57:58;;;;;;;68.50;63.17;;;;;;;;;;4993239;28;20432;-60
2022/03/25 08:00:24;;;;;;;73.00;67.40;;;;;;;;;;4992883;28;20170;-62
2022/03/25 08:02:52;;;;;;;69.43;63.83;;;;;;;;;;4990464;28;20511;-61
2022/03/25 08:05:18;;;;;;;64.32;59.53;;;;;;;;;;4973309;28;20414;-61
2022/03/25 08:07:47;;;;;;;62.40;57.80;;;;;;;;;;4972087;28;20210;-61
2022/03/25 08:10:13;;;;;;;73.55;67.90;;;;;;;;;;4972403;28;20418;-60
2022/03/25 08:12:39;;;;;;;76.30;70.67;;;;;;;;;;4972955;28;20186;-61
2022/03/25 08:15:06;;;;;;;67.73;62.73;;;;;;;;;;4971635;28;20544;-61
2022/03/25 08:17:32;;;;;;;82.50;76.50;;;;;;;;;;4972713;28;20443;-59
2022/03/25 08:19:58;;;;;;;79.18;73.53;;;;;;;;;;4972782;28;20187;-62
2022/03/25 08:22:24;;;;;;;74.55;69.55;;;;;;;;;;4971299;28;20177;-61
2022/03/25 08:27:51;;;;;;;73.82;68.82;;;;;;;;;;4972579;28;20798;-61
2022/03/25 08:30:17;;;;;;;85.55;80.20;;;;;;;;;;4972585;28;20217;-62
2022/03/25 08:32:43;;;;;;;77.63;72.93;;;;;;;;;;4972161;28;20171;-59
2022/03/25 08:35:09;;;;;;;79.93;75.03;;;;;;;;;;4971100;28;20454;-61
2022/03/25 08:37:35;;;;;;;83.07;78.18;;;;;;;;;;4971206;28;20962;-61
2022/03/25 08:40:03;;;;;;;92.35;87.05;;;;;;;;;;4972009;28;20183;-60
2022/03/25 08:42:29;;;;;;;85.25;80.65;;;;;;;;;;4971952;28;20636;-61
2022/03/25 08:44:55;;;;;;;94.23;89.17;;;;;;;;;;4972201;28;20173;-58
2022/03/25 08:47:21;;;;;;;107.38;101.57;;;;;;;;;;4972194;28;20502;-61
2022/03/25 08:49:47;;;;;;;116.30;110.10;;;;;;;;;;4972066;28;20260;-61
2022/03/25 08:52:13;;;;;;;125.07;118.67;;;;;;;;;;4975495;28;20479;-62
2022/03/25 08:54:39;;;;;;;130.10;123.47;;;;;;;;;;5011541;28;20891;-61
2022/03/25 08:57:05;;;;;;;137.57;130.67;;;;;;;;;;5011453;28;20810;-61
2022/03/25 08:59:31;;;;;;;136.63;130.37;;;;;;;;;;5011712;28;20470;-61
2022/03/25 09:01:57;;;;;;;155.80;148.50;;;;;;;;;;5011305;28;20791;-62
2022/03/25 09:04:23;;;;;;;180.70;172.80;;;;;;;;;;5011379;28;20437;-58
2022/03/25 09:06:49;;;;;;;182.90;176.00;;;;;;;;;;5011319;28;20427;-60
2022/03/25 09:09:15;;;;;;;271.37;261.33;;;;;;;;;;5011201;28;20456;-61
2022/03/25 09:11:41;;;;;;;240.57;232.53;;;;;;;;;;5010856;28;20408;-61
2022/03/25 09:14:07;;;;;;;314.73;304.00;;;;;;;;;;5011168;28;20424;-61
2022/03/25 09:16:34;;;;;;;321.10;310.20;;;;;;;;;;5011069;28;20483;-61
2022/03/25 09:19:00;;;;;;;292.93;283.53;;;;;;;;;;5013582;28;20411;-62
2022/03/25 09:21:26;;;;;;;391.37;377.47;;;;;;;;;;5014465;28;20380;-61
2022/03/25 09:23:51;;;;;;;406.63;391.90;;;;;;;;;;5014533;28;20438;-61
2022/03/25 09:26:17;;;;;;;418.70;403.47;;;;;;;;;;5011195;28;20415;-61
2022/03/25 09:28:43;;;;;;;381.53;368.00;;;;;;;;;;5005159;28;20411;-62
2022/03/25 09:31:09;;;;;;;372.77;359.53;;;;;;;;;;4994649;28;20383;-61
2022/03/25 09:33:35;;;;;;;378.80;365.30;;;;;;;;;;5010896;28;20890;-61
2022/03/25 09:36:02;;;;;;;362.53;349.70;;;;;;;;;;5013306;28;20456;-62
2022/03/25 09:38:28;;;;;;;416.50;401.23;;;;;;;;;;5008272;28;20504;-62
2022/03/25 09:40:54;;;;;;;439.97;423.60;;;;;;;;;;4996488;28;20435;-62
2022/03/25 09:43:20;;;;;;;415.30;399.93;;;;;;;;;;4994761;28;20411;-62
2022/03/25 09:45:46;;;;;;;489.40;470.77;;;;;;;;;;4994981;28;20376;-61
2022/03/25 09:48:13;;;;;;;567.80;545.23;;;;;;;;;;4993438;28;20445;-62
2022/03/25 09:50:40;;;;;;;577.03;553.87;;;;;;;;;;4994821;28;20384;-61
2022/03/25 09:53:06;;;;;;;578.63;555.53;;;;;;;;;;4994986;28;20502;-61
2022/03/25 09:55:32;;;;;;;516.73;496.67;;;;;;;;;;4994759;28;20431;-62
2022/03/25 09:57:58;;;;;;;563.33;540.77;;;;;;;;;;4995010;28;21167;-61
2022/03/25 10:00:24;;;;;;;604.93;580.10;;;;;;;;;;4994289;28;20474;-62
2022/03/25 10:02:50;;;;;;;598.93;574.20;;;;;;;;;;4994743;28;20413;-61
2022/03/25 10:05:20;;;;;;;627.07;600.87;;;;;;;;;;4994685;28;20401;-62
2022/03/25 10:07:54;;;;;;;607.43;582.30;;;;;;;;;;4994053;28;20828;-63
2022/03/25 10:10:21;;;;;;;631.63;605.13;;;;;;;;;;5018125;22;20496;-64
2022/03/25 10:13:07;;;;;;;695.53;665.70;;;;;;;;;;4994680;28;20419;-64
2022/03/25 10:15:39;;;;;;;649.90;622.83;;;;;;;;;;4994413;28;20463;-64
2022/03/25 10:18:06;;;;;;;639.90;613.17;;;;;;;;;;4994193;28;20464;-64
2022/03/25 10:20:34;;;;;;;614.60;589.57;;;;;;;;;;4993626;28;20743;-64
2022/03/25 10:22:59;;;;;;;598.77;574.47;;;;;;;;;;4993742;28;20412;-64
2022/03/25 10:25:39;;;;;;;588.03;564.23;;;;;;;;;;4993897;28;20879;-64
2022/03/25 10:28:17;;;;;;;752.83;720.30;;;;;;;;;;4994017;28;20788;-64
2022/03/25 10:30:43;;;;;;;629.77;604.00;;;;;;;;;;4993078;28;20788;-64
2022/03/25 10:33:10;;;;;;;695.03;665.40;;;;;;;;;;4993787;28;20412;-64
2022/03/25 10:35:53;;;;;;;716.83;686.10;;;;;;;;;;4993667;28;20452;-64
2022/03/25 10:38:20;;;;;;;710.67;680.53;;;;;;;;;;4993776;28;20791;-64
2022/03/25 10:40:49;;;;;;;745.83;713.60;;;;;;;;;;4993466;28;20420;-64
2022/03/25 10:43:15;;;;;;;767.10;733.47;;;;;;;;;;4993620;28;20611;-64
2022/03/25 10:45:41;;;;;;;781.07;746.53;;;;;;;;;;4993604;28;20442;-64
2022/03/25 10:48:11;;;;;;;683.47;654.33;;;;;;;;;;5013014;28;20759;-64
2022/03/25 10:50:54;;;;;;;592.43;568.47;;;;;;;;;;5012701;28;20428;-64
2022/03/25 10:53:21;;;;;;;673.40;645.07;;;;;;;;;;5012973;28;20407;-65
2022/03/25 10:55:55;;;;;;;753.23;720.13;;;;;;;;;;5012979;28;20898;-63
2022/03/25 10:58:21;;;;;;;807.70;771.80;;;;;;;;;;5013108;28;20385;-64
2022/03/25 11:00:47;;;;;;;766.93;733.23;;;;;;;;;;5012812;28;20821;-63
2022/03/25 11:03:16;;;;;;;761.90;728.50;;;;;;;;;;5013502;28;20429;-63
2022/03/25 11:05:43;;;;;;;736.87;705.47;;;;;;;;;;5012904;28;20489;-64
2022/03/25 11:08:09;;;;;;;601.77;577.53;;;;;;;;;;5012771;28;20467;-63
2022/03/25 11:10:36;;;;;;;649.03;622.30;;;;;;;;;;5012353;28;20443;-64
2022/03/25 11:13:05;;;;;;;572.63;549.87;;;;;;;;;;5012560;28;20399;-64
2022/03/25 11:15:32;;;;;;;510.33;490.77;;;;;;;;;;5012462;28;20472;-64
2022/03/25 11:17:59;;;;;;;483.27;465.00;;;;;;;;;;5012371;28;20383;-63
2022/03/25 11:20:26;;;;;;;651.90;624.97;;;;;;;;;;5012224;28;20461;-64
2022/03/25 11:22:55;;;;;;;692.83;663.63;;;;;;;;;;5012388;28;20432;-64
2022/03/25 11:25:22;;;;;;;775.63;741.27;;;;;;;;;;5012395;28;20418;-64
2022/03/25 11:27:50;;;;;;;776.20;742.03;;;;;;;;;;5012341;28;20381;-64
2022/03/25 11:30:16;;;;;;;755.63;722.23;;;;;;;;;;5012181;28;20425;-64
2022/03/25 11:33:03;;;;;;;765.57;731.83;;;;;;;;;;5012298;28;20382;-60
2022/03/25 11:35:31;;;;;;;735.63;704.33;;;;;;;;;;5012018;28;20429;-64
2022/03/25 11:38:12;;;;;;;596.57;572.77;;;;;;;;;;5011989;28;20402;-63
2022/03/25 11:40:39;;;;;;;718.27;687.93;;;;;;;;;;5011470;28;20451;-64
2022/03/25 11:43:14;;;;;;;694.43;665.17;;;;;;;;;;5011436;28;20401;-63
2022/03/25 11:45:40;;;;;;;714.57;684.37;;;;;;;;;;5012051;28;20395;-64
2022/03/25 11:48:06;;;;;;;750.10;717.67;;;;;;;;;;5012135;28;20743;-64
2022/03/25 11:50:32;;;;;;;723.33;692.83;;;;;;;;;;5011734;28;20462;-64
2022/03/25 11:52:59;;;;;;;743.40;711.70;;;;;;;;;;5011873;28;20415;-64
2022/03/25 11:55:25;;;;;;;511.43;491.93;;;;;;;;;;5011916;28;20476;-64
2022/03/25 11:57:51;;;;;;;530.23;509.80;;;;;;;;;;5011912;28;20414;-64
2022/03/25 12:00:24;;;;;;;519.67;499.47;;;;;;;;;;5011676;28;20521;-64
2022/03/25 12:03:04;;;;;;;564.43;542.40;;;;;;;;;;5011695;28;20411;-64
2022/03/25 12:05:30;;;;;;;579.80;556.90;;;;;;;;;;5011718;28;20419;-64
2022/03/25 12:08:14;;;;;;;463.40;446.00;;;;;;;;;;5009119;28;20385;-63
2022/03/25 12:10:44;;;;;;;468.03;450.50;;;;;;;;;;5011280;28;20410;-64
2022/03/25 12:13:10;;;;;;;424.50;409.17;;;;;;;;;;5011694;28;20384;-64
2022/03/25 12:15:40;;;;;;;391.67;377.80;;;;;;;;;;5010888;28;20473;-63
2022/03/25 12:18:25;;;;;;;421.87;406.57;;;;;;;;;;5007336;28;20487;-63
2022/03/25 12:20:51;;;;;;;392.53;378.33;;;;;;;;;;4989194;28;20394;-63
2022/03/25 12:23:17;;;;;;;437.13;420.83;;;;;;;;;;4991565;28;20409;-63
2022/03/25 12:25:46;;;;;;;474.27;456.27;;;;;;;;;;4991797;28;20446;-62
2022/03/25 12:28:12;;;;;;;492.20;473.10;;;;;;;;;;4991637;28;21006;-62
2022/03/25 12:30:38;;;;;;;483.23;464.30;;;;;;;;;;4989206;28;20409;-62
2022/03/25 12:33:07;;;;;;;573.70;549.03;;;;;;;;;;4991118;28;20422;-63
2022/03/25 12:35:36;;;;;;;561.27;537.20;;;;;;;;;;4992461;28;20421;-63
2022/03/25 12:38:14;;;;;;;561.07;535.17;;;;;;;;;;4991874;28;20425;-63
2022/03/25 12:40:40;;;;;;;566.10;538.60;;;;;;;;;;4991394;28;20439;-63
2022/03/25 12:43:08;;;;;;;551.17;525.47;;;;;;;;;;4991827;28;20743;-63
2022/03/25 12:45:42;;;;;;;438.87;421.03;;;;;;;;;;4991968;28;20431;-64
2022/03/25 12:48:09;;;;;;;571.23;542.13;;;;;;;;;;4991954;28;20380;-63
2022/03/25 12:50:35;;;;;;;545.83;517.20;;;;;;;;;;4991710;28;20985;-63
2022/03/25 12:53:02;;;;;;;577.87;548.60;;;;;;;;;;4992961;28;20418;-63
2022/03/25 12:55:29;;;;;;;589.20;559.20;;;;;;;;;;4995445;28;20856;-63
2022/03/25 12:58:02;;;;;;;575.83;546.73;;;;;;;;;;4995552;28;20415;-63
2022/03/25 13:00:32;;;;;;;556.93;528.93;;;;;;;;;;4995190;28;20425;-63
2022/03/25 13:02:58;;;;;;;530.97;505.03;;;;;;;;;;4995305;28;20433;-63
2022/03/25 13:05:25;;;;;;;529.80;504.97;;;;;;;;;;4995364;28;20484;-63
2022/03/25 13:07:52;;;;;;;534.87;509.17;;;;;;;;;;4995491;28;20487;-63
2022/03/25 13:10:19;;;;;;;537.60;511.07;;;;;;;;;;4995155;28;20471;-63
2022/03/25 13:12:52;;;;;;;553.07;525.43;;;;;;;;;;4995402;28;20905;-63
2022/03/25 13:15:23;;;;;;;566.90;534.90;;;;;;;;;;4995383;28;20485;-63
2022/03/25 13:17:51;;;;;;;547.87;517.97;;;;;;;;;;4995456;28;20409;-63
2022/03/25 13:20:18;;;;;;;560.13;528.77;;;;;;;;;;4994784;28;20436;-63
2022/03/25 13:22:59;;;;;;;540.17;510.90;;;;;;;;;;4995489;28;20893;-63
2022/03/25 13:25:36;;;;;;;492.53;469.57;;;;;;;;;;4995367;28;20816;-63
2022/03/25 13:28:02;;;;;;;480.07;457.47;;;;;;;;;;4995521;28;20881;-63
2022/03/25 13:30:29;;;;;;;422.67;403.80;;;;;;;;;;4994501;28;20491;-63
2022/03/25 13:33:06;;;;;;;444.53;424.10;;;;;;;;;;4995196;28;20488;-63
2022/03/25 13:35:32;;;;;;;443.03;423.43;;;;;;;;;;4995611;28;20460;-63
2022/03/25 13:38:02;;;;;;;464.13;443.03;;;;;;;;;;4995660;28;20416;-63
2022/03/25 13:40:40;;;;;;;465.13;443.23;;;;;;;;;;4993762;28;20457;-63
2022/03/25 13:43:08;;;;;;;432.87;412.13;;;;;;;;;;4994964;28;20402;-64
2022/03/25 13:45:34;;;;;;;435.67;415.50;;;;;;;;;;4994972;28;20545;-63
2022/03/25 13:48:04;;;;;;;456.03;434.73;;;;;;;;;;4994909;28;20445;-63
2022/03/25 13:50:31;;;;;;;448.67;428.27;;;;;;;;;;4993163;28;20564;-63
2022/03/25 13:52:59;;;;;;;460.17;438.37;;;;;;;;;;4994789;28;20406;-63
2022/03/25 13:55:32;;;;;;;476.30;452.77;;;;;;;;;;4994726;28;21020;-63
2022/03/25 13:57:58;;;;;;;481.40;457.60;;;;;;;;;;4994401;28;20947;-62
2022/03/25 14:00:31;;;;;;;478.57;454.57;;;;;;;;;;4994530;28;20445;-63
2022/03/25 14:02:58;;;;;;;468.33;443.63;;;;;;;;;;4994542;28;20402;-63
2022/03/25 14:05:25;;;;;;;480.87;452.47;;;;;;;;;;4993381;28;20825;-62